Time;durP1;ratioP1;P1;durP2;ratioP2;P2;SDS_P1;SDS_P2;PMS_P1;PMS_P2;Temp;Humidity;BMP_temperature;BMP_pressure;BME280_temperature;BME280_humidity;BME280_pressure;Samples;Min_cycle;Max_cycle;Signal;HPM_P1;HPM_P2
2023/11/06 00:00:53;;;;;;;8.93;1.73;;;9.50;99.90;;;;;;4976948;28;20506;-63
2023/11/06 00:03:18;;;;;;;9.50;1.80;;;9.60;99.90;;;;;;4975969;28;20129;-63
2023/11/06 00:05:46;;;;;;;7.78;1.67;;;9.60;99.90;;;;;;4983235;28;20181;-63
2023/11/06 00:08:11;;;;;;;8.98;2.15;;;9.70;99.90;;;;;;4980590;28;20058;-63
2023/11/06 00:10:40;;;;;;;5.10;1.67;;;9.80;99.90;;;;;;4984703;28;20049;-63
2023/11/06 00:13:06;;;;;;;9.75;2.25;;;9.80;99.90;;;;;;4978237;28;20037;-63
2023/11/06 00:15:32;;;;;;;6.40;2.00;;;9.80;99.90;;;;;;4983086;28;20026;-63
2023/11/06 00:17:57;;;;;;;5.45;1.70;;;9.70;99.90;;;;;;4979726;28;20513;-63
2023/11/06 00:20:23;;;;;;;7.78;1.55;;;9.70;99.90;;;;;;4982637;28;20033;-63
2023/11/06 00:22:49;;;;;;;10.05;2.80;;;9.80;99.90;;;;;;4979442;28;20487;-63
2023/11/06 00:25:17;;;;;;;7.10;1.45;;;9.80;99.90;;;;;;4983846;28;20117;-63
2023/11/06 00:27:45;;;;;;;10.98;2.53;;;9.70;99.90;;;;;;4947821;28;20101;-63
2023/11/06 00:30:13;;;;;;;8.48;1.73;;;9.60;99.90;;;;;;4984515;28;20033;-63
2023/11/06 00:32:38;;;;;;;7.65;1.60;;;9.70;99.90;;;;;;4981567;28;20031;-63
2023/11/06 00:35:05;;;;;;;7.85;1.70;;;9.60;99.90;;;;;;4986505;28;20061;-63
2023/11/06 00:37:30;;;;;;;10.45;1.95;;;9.70;99.90;;;;;;4979952;28;20049;-63
2023/11/06 00:39:56;;;;;;;12.13;2.10;;;9.70;99.90;;;;;;4982891;28;20494;-63
2023/11/06 00:42:22;;;;;;;7.13;1.70;;;9.70;99.90;;;;;;4981133;28;20569;-63
2023/11/06 00:44:48;;;;;;;5.40;1.48;;;9.80;99.90;;;;;;4979076;28;20026;-63
2023/11/06 00:47:13;;;;;;;8.43;1.40;;;9.80;99.90;;;;;;4980876;28;20023;-63
2023/11/06 00:49:39;;;;;;;7.55;1.80;;;9.70;99.90;;;;;;4980463;28;20038;-63
2023/11/06 00:52:07;;;;;;;5.53;1.60;;;9.70;99.90;;;;;;4980436;28;20573;-63
2023/11/06 00:54:33;;;;;;;5.00;1.50;;;9.70;99.90;;;;;;4980910;28;20120;-63
2023/11/06 00:57:00;;;;;;;6.25;1.67;;;9.70;99.90;;;;;;4982259;28;20034;-63
2023/11/06 00:59:25;;;;;;;5.90;1.60;;;9.70;99.90;;;;;;4982711;28;20035;-63
2023/11/06 01:01:51;;;;;;;6.15;1.50;;;9.70;99.90;;;;;;4973857;28;20081;-63
2023/11/06 01:04:17;;;;;;;5.97;1.60;;;9.70;99.90;;;;;;4984163;28;20038;-64
2023/11/06 01:06:42;;;;;;;8.20;1.67;;;9.70;99.90;;;;;;4980302;28;20033;-63
2023/11/06 01:09:08;;;;;;;5.65;1.92;;;9.70;99.90;;;;;;4979267;28;20051;-63
2023/11/06 01:11:35;;;;;;;6.38;1.70;;;9.80;99.90;;;;;;4981573;28;20043;-63
2023/11/06 01:14:01;;;;;;;7.50;2.03;;;9.80;99.90;;;;;;4981580;28;20023;-65
2023/11/06 01:16:26;;;;;;;9.40;1.63;;;9.80;99.90;;;;;;4982414;28;20093;-64
2023/11/06 01:18:52;;;;;;;6.43;1.50;;;9.80;99.90;;;;;;4980968;28;20390;-63
2023/11/06 01:21:17;;;;;;;5.22;1.42;;;9.90;99.90;;;;;;4979793;28;20038;-64
2023/11/06 01:23:45;;;;;;;4.57;1.52;;;9.90;99.90;;;;;;4978093;28;20438;-64
2023/11/06 01:26:11;;;;;;;7.68;1.52;;;9.90;99.90;;;;;;4982111;28;20081;-63
2023/11/06 01:28:36;;;;;;;8.45;1.40;;;9.90;99.90;;;;;;4980575;28;20026;-63
2023/11/06 01:31:02;;;;;;;4.32;1.40;;;9.90;99.90;;;;;;4982229;28;20081;-63
2023/11/06 01:33:28;;;;;;;10.90;2.00;;;9.90;99.90;;;;;;4983127;28;20069;-63
2023/11/06 01:35:53;;;;;;;8.77;1.80;;;9.90;99.90;;;;;;4980095;28;20117;-63
2023/11/06 01:38:19;;;;;;;7.10;1.83;;;9.80;99.90;;;;;;4983012;28;20038;-63
2023/11/06 01:40:45;;;;;;;6.75;1.50;;;9.90;99.90;;;;;;4978328;28;20066;-63
2023/11/06 01:43:11;;;;;;;6.60;1.48;;;9.80;99.90;;;;;;4985546;28;20105;-63
2023/11/06 01:45:37;;;;;;;8.23;1.83;;;9.70;99.90;;;;;;4977515;28;20018;-63
2023/11/06 01:48:04;;;;;;;5.45;1.42;;;9.60;99.90;;;;;;4979312;28;20018;-63
2023/11/06 01:50:32;;;;;;;7.60;1.77;;;9.50;99.90;;;;;;4979056;28;20019;-63
2023/11/06 01:53:01;;;;;;;8.55;1.92;;;9.50;99.90;;;;;;4981749;28;20101;-63
2023/11/06 01:55:27;;;;;;;11.40;1.90;;;9.40;99.90;;;;;;4980198;28;20046;-63
2023/11/06 01:57:55;;;;;;;10.52;1.98;;;9.40;99.90;;;;;;4953141;28;20422;-63
2023/11/06 02:00:23;;;;;;;9.48;1.98;;;9.40;99.90;;;;;;4983523;28;20030;-63
2023/11/06 02:02:49;;;;;;;7.63;1.92;;;9.20;99.90;;;;;;4970435;28;20383;-64
2023/11/06 02:05:17;;;;;;;10.48;2.15;;;9.20;99.90;;;;;;4951472;28;20040;-64
2023/11/06 02:07:43;;;;;;;7.88;2.15;;;9.20;99.90;;;;;;4980993;28;20122;-64
2023/11/06 02:10:09;;;;;;;8.60;1.80;;;9.20;99.90;;;;;;4985793;28;20045;-64
2023/11/06 02:12:35;;;;;;;7.38;1.90;;;9.20;99.90;;;;;;4984224;28;20117;-64
2023/11/06 02:15:00;;;;;;;5.85;1.80;;;9.20;99.90;;;;;;4982688;28;20038;-64
2023/11/06 02:17:26;;;;;;;5.85;2.20;;;9.10;99.90;;;;;;4984627;28;20035;-64
2023/11/06 02:19:52;;;;;;;10.85;1.90;;;9.20;99.90;;;;;;4982579;28;20375;-64
2023/11/06 02:22:22;;;;;;;5.63;1.20;;;9.20;99.90;;;;;;4985915;28;20042;-65
2023/11/06 02:24:49;;;;;;;8.25;1.45;;;9.20;99.90;;;;;;4981832;28;20430;-65
2023/11/06 02:27:16;;;;;;;6.88;1.77;;;9.30;99.90;;;;;;4981779;28;20089;-65
2023/11/06 02:29:42;;;;;;;3.75;1.15;;;9.30;99.90;;;;;;4981566;28;20923;-65
2023/11/06 02:32:09;;;;;;;5.90;1.80;;;9.20;99.90;;;;;;4985630;28;20105;-65
2023/11/06 02:34:39;;;;;;;9.38;1.92;;;9.20;99.90;;;;;;4982620;28;20026;-65
2023/11/06 02:37:05;;;;;;;8.68;1.80;;;9.20;99.90;;;;;;4986382;28;20081;-65
2023/11/06 02:39:34;;;;;;;8.65;2.20;;;9.20;99.90;;;;;;4982585;28;20034;-65
2023/11/06 02:42:02;;;;;;;8.80;2.13;;;9.10;99.90;;;;;;4984285;28;20359;-65
2023/11/06 02:44:30;;;;;;;7.32;1.60;;;9.10;99.90;;;;;;4962585;28;20030;-65
2023/11/06 02:46:56;;;;;;;7.72;1.90;;;9.00;99.90;;;;;;4982428;28;20041;-66
2023/11/06 02:49:23;;;;;;;8.90;2.00;;;9.00;99.90;;;;;;4951776;28;20027;-66
2023/11/06 02:51:48;;;;;;;10.05;2.30;;;8.90;99.90;;;;;;4982291;28;20088;-66
2023/11/06 02:54:14;;;;;;;11.73;2.13;;;8.90;99.90;;;;;;4945719;28;20467;-66
2023/11/06 02:56:40;;;;;;;8.15;1.98;;;8.90;99.90;;;;;;4980580;28;20030;-66
2023/11/06 02:59:07;;;;;;;8.02;2.00;;;8.90;99.90;;;;;;4984555;28;20022;-66
2023/11/06 03:01:34;;;;;;;8.98;2.47;;;8.80;99.90;;;;;;4982364;28;20027;-66
2023/11/06 03:03:59;;;;;;;11.68;2.78;;;8.80;99.90;;;;;;4983903;28;20022;-66
2023/11/06 03:06:28;;;;;;;7.20;2.38;;;8.80;99.90;;;;;;4982104;28;20134;-66
2023/11/06 03:08:55;;;;;;;12.27;2.20;;;8.80;99.90;;;;;;4957950;28;20055;-66
2023/11/06 03:11:21;;;;;;;9.48;2.17;;;8.90;99.90;;;;;;4983809;28;20026;-66
2023/11/06 03:13:47;;;;;;;6.78;1.90;;;8.90;99.90;;;;;;4983515;28;20030;-66
2023/11/06 03:16:17;;;;;;;10.55;2.10;;;8.90;99.90;;;;;;4981308;28;20027;-66
2023/11/06 03:18:43;;;;;;;11.32;2.10;;;8.90;99.90;;;;;;4945101;28;20094;-66
2023/11/06 03:21:10;;;;;;;10.43;2.35;;;8.90;99.90;;;;;;4984302;28;20125;-66
2023/11/06 03:23:36;;;;;;;7.60;2.30;;;8.90;99.90;;;;;;4982768;28;20027;-66
2023/11/06 03:26:02;;;;;;;8.82;2.20;;;8.90;99.90;;;;;;4980605;28;20034;-66
2023/11/06 03:28:29;;;;;;;6.97;1.63;;;8.80;99.90;;;;;;4982819;28;20022;-66
2023/11/06 03:30:57;;;;;;;8.85;2.13;;;8.90;99.90;;;;;;4980835;28;20924;-65
2023/11/06 03:33:22;;;;;;;4.97;1.73;;;8.90;99.90;;;;;;4984088;28;20031;-65
2023/11/06 03:35:48;;;;;;;6.72;1.52;;;8.90;99.90;;;;;;4978939;28;20034;-66
2023/11/06 03:38:14;;;;;;;6.53;1.77;;;8.90;99.90;;;;;;4983216;28;20034;-66
2023/11/06 03:40:40;;;;;;;12.75;2.05;;;9.00;99.90;;;;;;4984733;28;20069;-66
2023/11/06 03:43:05;;;;;;;7.80;1.90;;;9.00;99.90;;;;;;4980505;28;20043;-66
2023/11/06 03:45:31;;;;;;;7.80;1.90;;;9.00;99.90;;;;;;4977169;28;20080;-66
2023/11/06 03:47:57;;;;;;;9.23;2.20;;;9.00;99.90;;;;;;4981946;28;20033;-66
2023/11/06 03:50:22;;;;;;;8.07;1.85;;;9.10;99.90;;;;;;4982431;28;20015;-66
2023/11/06 03:52:49;;;;;;;4.32;1.13;;;9.00;99.90;;;;;;4981564;28;20023;-65
2023/11/06 03:55:14;;;;;;;7.93;1.60;;;9.10;99.90;;;;;;4982346;28;20030;-65
2023/11/06 03:57:40;;;;;;;5.65;1.60;;;9.10;99.90;;;;;;4978886;28;20044;-65
2023/11/06 04:00:09;;;;;;;7.10;1.58;;;9.20;99.90;;;;;;4983931;28;20033;-65
2023/11/06 04:02:38;;;;;;;7.77;1.90;;;9.20;99.90;;;;;;4980641;28;20070;-65
2023/11/06 04:05:04;;;;;;;6.50;1.77;;;9.20;99.90;;;;;;4982525;28;20304;-65
2023/11/06 04:07:29;;;;;;;7.32;1.77;;;9.20;99.90;;;;;;4981462;28;20029;-65
2023/11/06 04:09:57;;;;;;;6.90;2.00;;;9.20;99.90;;;;;;4983198;28;20151;-65
2023/11/06 04:12:23;;;;;;;6.65;1.55;;;9.20;99.90;;;;;;4984716;28;20023;-65
2023/11/06 04:14:49;;;;;;;5.35;1.80;;;9.20;99.90;;;;;;4981896;28;20085;-65
2023/11/06 04:17:15;;;;;;;5.47;1.77;;;9.20;99.90;;;;;;4950131;28;20035;-65
2023/11/06 04:19:41;;;;;;;7.45;1.73;;;9.30;99.90;;;;;;4980636;28;20031;-65
2023/11/06 04:22:07;;;;;;;8.93;1.60;;;9.20;99.90;;;;;;4983486;28;20397;-65
2023/11/06 04:24:33;;;;;;;6.75;2.00;;;9.30;99.90;;;;;;4948164;28;20026;-65
2023/11/06 04:26:59;;;;;;;5.10;1.50;;;9.30;99.90;;;;;;4980788;28;20033;-65
2023/11/06 04:29:27;;;;;;;6.55;1.42;;;9.30;99.90;;;;;;4983728;28;20053;-65
2023/11/06 04:31:55;;;;;;;7.78;1.92;;;9.30;99.90;;;;;;4982248;28;20081;-65
2023/11/06 04:34:21;;;;;;;5.90;1.60;;;9.40;99.90;;;;;;4981261;28;20109;-65
2023/11/06 04:36:47;;;;;;;6.13;1.77;;;9.30;99.90;;;;;;4979913;28;20110;-65
2023/11/06 04:39:13;;;;;;;6.10;1.52;;;9.30;99.90;;;;;;4983209;28;20031;-65
2023/11/06 04:41:39;;;;;;;7.95;1.85;;;9.40;99.90;;;;;;4984155;28;20105;-64
2023/11/06 04:44:05;;;;;;;5.95;1.85;;;9.30;99.90;;;;;;4980459;28;20023;-63
2023/11/06 04:46:31;;;;;;;10.13;2.40;;;9.30;99.90;;;;;;4983090;28;20026;-63
2023/11/06 04:48:57;;;;;;;6.35;1.80;;;9.30;99.90;;;;;;4975105;28;20050;-64
2023/11/06 04:51:22;;;;;;;7.00;1.60;;;9.20;99.90;;;;;;4979121;28;20490;-64
2023/11/06 04:53:48;;;;;;;8.70;1.70;;;9.10;99.90;;;;;;4981446;28;20042;-64
2023/11/06 04:56:13;;;;;;;6.78;1.90;;;9.10;99.90;;;;;;4981840;28;20027;-64
2023/11/06 04:58:39;;;;;;;6.57;2.05;;;9.00;99.90;;;;;;4979329;28;20031;-64
2023/11/06 05:01:08;;;;;;;5.78;1.90;;;9.00;99.90;;;;;;4982373;28;20037;-64
2023/11/06 05:03:38;;;;;;;6.18;1.90;;;8.90;99.90;;;;;;4976330;28;20548;-64
2023/11/06 05:06:05;;;;;;;6.70;1.60;;;8.80;99.90;;;;;;4979720;28;20046;-64
2023/11/06 05:08:33;;;;;;;4.70;1.65;;;8.80;99.90;;;;;;4980699;28;20577;-63
2023/11/06 05:10:58;;;;;;;8.90;2.05;;;8.80;99.90;;;;;;4978755;28;20459;-63
2023/11/06 05:13:24;;;;;;;5.38;1.83;;;8.80;99.90;;;;;;4983256;28;20030;-63
2023/11/06 05:15:50;;;;;;;8.02;1.58;;;8.80;99.90;;;;;;4977151;28;20033;-63
2023/11/06 05:18:15;;;;;;;12.10;2.17;;;8.80;99.90;;;;;;4979407;28;20035;-63
2023/11/06 05:20:44;;;;;;;8.32;2.38;;;8.80;99.90;;;;;;4981615;28;20513;-63
2023/11/06 05:23:10;;;;;;;12.10;2.22;;;8.70;99.90;;;;;;4982234;28;20027;-63
2023/11/06 05:25:36;;;;;;;6.53;1.70;;;8.70;99.90;;;;;;4978909;28;20034;-63
2023/11/06 05:28:03;;;;;;;6.15;1.50;;;8.70;99.90;;;;;;4976733;28;20522;-63
2023/11/06 05:30:29;;;;;;;9.45;1.85;;;8.70;99.90;;;;;;4977780;28;20030;-63
2023/11/06 05:32:54;;;;;;;8.75;1.70;;;8.80;99.90;;;;;;4983406;28;20023;-63
2023/11/06 05:35:21;;;;;;;7.90;1.75;;;8.90;99.90;;;;;;4980320;28;20030;-63
2023/11/06 05:37:49;;;;;;;7.50;1.70;;;8.90;99.90;;;;;;4983558;28;20050;-63
2023/11/06 05:40:15;;;;;;;5.85;1.63;;;8.90;99.90;;;;;;4986187;28;20031;-63
2023/11/06 05:42:40;;;;;;;7.10;2.10;;;9.00;99.90;;;;;;4982819;28;20061;-63
2023/11/06 05:45:07;;;;;;;6.82;2.60;;;9.00;99.90;;;;;;4984306;28;20034;-63
2023/11/06 05:47:33;;;;;;;7.35;1.73;;;9.00;99.90;;;;;;4978873;28;20019;-63
2023/11/06 05:49:58;;;;;;;6.88;1.85;;;9.00;99.90;;;;;;4984408;28;20149;-64
2023/11/06 05:52:24;;;;;;;5.43;1.60;;;9.00;99.90;;;;;;4986128;28;20030;-64
2023/11/06 05:54:50;;;;;;;11.35;2.10;;;8.90;99.90;;;;;;4982660;28;20170;-63
2023/11/06 05:57:16;;;;;;;13.43;1.83;;;8.80;99.90;;;;;;4977650;28;20035;-63
2023/11/06 05:59:42;;;;;;;6.03;1.70;;;8.90;99.90;;;;;;4984698;28;20592;-63
2023/11/06 06:02:10;;;;;;;6.57;1.50;;;8.90;99.90;;;;;;4982973;28;20023;-64
2023/11/06 06:04:39;;;;;;;5.63;1.60;;;8.90;99.90;;;;;;4969471;28;20030;-64
2023/11/06 06:07:05;;;;;;;8.85;2.13;;;8.90;99.90;;;;;;4979183;28;20030;-65
2023/11/06 06:09:32;;;;;;;9.07;1.98;;;8.90;99.90;;;;;;4981130;28;20062;-65
2023/11/06 06:11:58;;;;;;;9.75;1.88;;;8.90;99.90;;;;;;4953414;28;20452;-62
2023/11/06 06:14:24;;;;;;;10.65;2.00;;;8.80;99.90;;;;;;4982394;28;20014;-62
2023/11/06 06:16:50;;;;;;;11.85;2.00;;;8.90;99.90;;;;;;4977901;28;20534;-62
2023/11/06 06:19:16;;;;;;;9.68;2.50;;;8.90;99.90;;;;;;4978609;28;20031;-62
2023/11/06 06:21:45;;;;;;;9.48;2.45;;;8.90;99.90;;;;;;4982034;28;20053;-62
2023/11/06 06:24:12;;;;;;;9.48;2.13;;;9.00;99.90;;;;;;4979804;28;20039;-62
2023/11/06 06:26:38;;;;;;;7.05;2.00;;;9.10;99.90;;;;;;4980983;28;20026;-62
2023/11/06 06:29:04;;;;;;;8.70;1.73;;;9.10;99.90;;;;;;4980292;28;20467;-62
2023/11/06 06:31:30;;;;;;;10.93;2.20;;;9.10;99.90;;;;;;4981605;28;20117;-62
2023/11/06 06:33:56;;;;;;;19.30;2.85;;;9.20;99.90;;;;;;4980984;28;20073;-62
2023/11/06 06:36:23;;;;;;;13.93;2.75;;;9.30;99.90;;;;;;4980141;28;20030;-62
2023/11/06 06:38:49;;;;;;;15.13;2.20;;;9.30;99.90;;;;;;4980254;28;20045;-62
2023/11/06 06:41:15;;;;;;;13.63;3.85;;;9.30;99.90;;;;;;4984289;28;20027;-60
2023/11/06 06:43:40;;;;;;;11.00;2.17;;;9.30;99.90;;;;;;4984737;28;20038;-62
2023/11/06 06:46:06;;;;;;;10.07;2.67;;;9.30;99.90;;;;;;4977788;28;20030;-60
2023/11/06 06:48:32;;;;;;;10.25;2.28;;;9.30;99.90;;;;;;4982449;28;20097;-60
2023/11/06 06:50:57;;;;;;;13.20;2.72;;;9.30;99.90;;;;;;4981400;28;20075;-62
2023/11/06 06:53:23;;;;;;;11.93;2.85;;;9.30;99.90;;;;;;4983485;28;20022;-60
2023/11/06 06:55:49;;;;;;;12.73;2.60;;;9.20;99.90;;;;;;4975846;28;20027;-63
2023/11/06 06:58:14;;;;;;;13.45;2.83;;;9.20;99.90;;;;;;4981146;28;20462;-62
2023/11/06 07:00:40;;;;;;;15.07;3.00;;;9.10;99.90;;;;;;4982018;28;20062;-63
2023/11/06 07:03:06;;;;;;;10.52;2.08;;;9.20;99.90;;;;;;4979257;28;20060;-61
2023/11/06 07:05:33;;;;;;;13.98;2.95;;;9.20;99.90;;;;;;4982943;28;20085;-61
2023/11/06 07:07:59;;;;;;;14.13;2.75;;;9.20;99.90;;;;;;4972203;28;20113;-62
2023/11/06 07:10:25;;;;;;;11.38;2.60;;;9.20;99.90;;;;;;4974192;28;20042;-61
2023/11/06 07:12:51;;;;;;;12.30;2.45;;;9.20;99.90;;;;;;4970808;28;20510;-61
2023/11/06 07:15:17;;;;;;;15.20;2.60;;;9.10;99.90;;;;;;4970154;28;20058;-61
2023/11/06 07:17:43;;;;;;;9.35;2.88;;;9.10;99.90;;;;;;4977281;28;20066;-61
2023/11/06 07:20:15;;;;;;;15.05;3.03;;;9.10;99.90;;;;;;4976674;28;20080;-61
2023/11/06 07:22:43;;;;;;;12.63;2.42;;;9.10;99.90;;;;;;4966054;28;20659;-62
2023/11/06 07:25:09;;;;;;;10.27;2.13;;;9.10;99.90;;;;;;4979362;28;20046;-62
2023/11/06 07:27:35;;;;;;;15.27;2.67;;;9.10;99.90;;;;;;4978536;28;20101;-62
2023/11/06 07:30:01;;;;;;;11.85;2.35;;;9.10;99.90;;;;;;4981230;28;20037;-62
2023/11/06 07:32:27;;;;;;;13.30;2.72;;;9.10;99.90;;;;;;4978795;28;20023;-62
2023/11/06 07:34:52;;;;;;;10.82;2.55;;;9.10;99.90;;;;;;4979990;28;20110;-62
2023/11/06 07:37:18;;;;;;;10.88;2.58;;;9.20;99.90;;;;;;4980547;28;20031;-62
2023/11/06 07:39:44;;;;;;;11.82;2.25;;;9.30;99.90;;;;;;4983577;28;20046;-62
2023/11/06 07:42:12;;;;;;;12.43;2.58;;;9.20;99.90;;;;;;4982171;28;20104;-62
2023/11/06 07:44:41;;;;;;;10.77;2.50;;;9.30;99.90;;;;;;4978736;28;20110;-62
2023/11/06 07:47:08;;;;;;;11.18;2.72;;;9.30;99.90;;;;;;4979548;28;20027;-62
2023/11/06 07:49:37;;;;;;;14.13;2.45;;;9.30;99.90;;;;;;4979104;28;20129;-62
2023/11/06 07:52:08;;;;;;;8.75;2.00;;;9.40;99.90;;;;;;4979303;28;20015;-62
2023/11/06 07:54:35;;;;;;;8.18;2.10;;;9.50;99.90;;;;;;4973700;28;20034;-62
2023/11/06 07:57:01;;;;;;;7.18;1.80;;;9.70;99.90;;;;;;4978486;28;20374;-62
2023/11/06 07:59:26;;;;;;;15.60;2.00;;;9.70;99.90;;;;;;4979149;28;20063;-62
2023/11/06 08:01:52;;;;;;;14.13;2.67;;;9.70;99.90;;;;;;4979681;28;20031;-62
2023/11/06 08:04:17;;;;;;;13.48;2.53;;;9.80;99.90;;;;;;4979109;28;20118;-62
2023/11/06 08:06:43;;;;;;;11.77;2.88;;;9.90;99.90;;;;;;4978339;28;20339;-62
2023/11/06 08:09:09;;;;;;;11.43;2.25;;;9.80;99.90;;;;;;4980602;28;20054;-62
2023/11/06 08:11:38;;;;;;;10.20;2.63;;;9.90;99.90;;;;;;4979614;28;20623;-62
2023/11/06 08:14:04;;;;;;;11.63;2.38;;;10.00;99.90;;;;;;4980571;28;20046;-62
2023/11/06 08:16:34;;;;;;;11.55;2.35;;;9.90;99.90;;;;;;4980893;28;20293;-62
2023/11/06 08:19:00;;;;;;;14.20;2.20;;;10.00;99.90;;;;;;4979616;28;20108;-62
2023/11/06 08:21:25;;;;;;;12.68;2.92;;;10.00;99.90;;;;;;4978677;28;20053;-62
2023/11/06 08:23:51;;;;;;;12.35;2.38;;;10.00;99.90;;;;;;4980025;28;20030;-62
2023/11/06 08:26:17;;;;;;;8.10;1.70;;;10.10;99.90;;;;;;4979471;28;20081;-62
2023/11/06 08:28:43;;;;;;;9.15;2.00;;;10.10;99.90;;;;;;4976486;28;20023;-62
2023/11/06 08:31:10;;;;;;;6.97;1.80;;;10.00;99.90;;;;;;4980083;28;20069;-64
2023/11/06 08:33:36;;;;;;;12.07;3.10;;;10.00;99.90;;;;;;4974496;28;20131;-64
2023/11/06 08:36:02;;;;;;;14.50;2.25;;;10.00;99.90;;;;;;4978464;28;20466;-64
2023/11/06 08:38:28;;;;;;;8.48;2.00;;;10.20;99.90;;;;;;4977642;28;20494;-64
2023/11/06 08:40:54;;;;;;;12.25;2.50;;;10.10;99.90;;;;;;4976471;28;20110;-64
2023/11/06 08:43:20;;;;;;;9.65;2.58;;;10.10;99.90;;;;;;4945586;28;20026;-64
2023/11/06 08:45:45;;;;;;;11.52;1.70;;;10.10;99.90;;;;;;4979637;28;20037;-64
2023/11/06 08:48:13;;;;;;;7.25;1.98;;;10.10;99.90;;;;;;4976678;28;20051;-64
2023/11/06 08:50:39;;;;;;;7.53;1.77;;;10.00;99.90;;;;;;4979244;28;20026;-64
2023/11/06 08:53:04;;;;;;;11.68;1.98;;;10.00;99.90;;;;;;4978537;28;20034;-64
2023/11/06 08:55:30;;;;;;;9.02;1.98;;;10.00;99.90;;;;;;4977540;28;20038;-64
2023/11/06 08:57:56;;;;;;;15.50;1.90;;;10.00;99.90;;;;;;4938368;28;20034;-64
2023/11/06 09:00:21;;;;;;;3.00;1.10;;;10.10;99.90;;;;;;4979832;28;20044;-64
2023/11/06 09:02:47;;;;;;;10.27;2.13;;;10.30;99.90;;;;;;4977677;28;20099;-64
2023/11/06 09:05:16;;;;;;;14.60;3.35;;;10.40;99.90;;;;;;4979878;28;20514;-64
2023/11/06 09:07:43;;;;;;;9.52;2.13;;;10.50;99.90;;;;;;4978209;28;20371;-64
2023/11/06 09:10:09;;;;;;;15.68;3.38;;;10.70;99.90;;;;;;4943391;28;20450;-64
2023/11/06 09:12:35;;;;;;;12.13;1.92;;;10.70;99.90;;;;;;4981678;28;20110;-64
2023/11/06 09:15:01;;;;;;;9.25;1.80;;;10.70;99.90;;;;;;4982008;28;20109;-64
2023/11/06 09:17:27;;;;;;;10.05;1.85;;;10.80;99.90;;;;;;4981893;28;20112;-64
2023/11/06 09:19:52;;;;;;;8.05;1.58;;;10.90;99.90;;;;;;4981808;28;20463;-64
2023/11/06 09:22:19;;;;;;;8.38;1.77;;;10.90;99.90;;;;;;4982686;28;20030;-64
2023/11/06 09:24:45;;;;;;;12.20;2.10;;;11.00;99.90;;;;;;4980255;28;20033;-64
2023/11/06 09:27:11;;;;;;;7.60;1.80;;;11.00;99.90;;;;;;4979506;28;20490;-64
2023/11/06 09:29:36;;;;;;;5.10;1.48;;;11.20;99.90;;;;;;4980074;28;20379;-64
2023/11/06 09:32:02;;;;;;;8.40;1.70;;;11.10;99.90;;;;;;4979522;28;20042;-64
2023/11/06 09:34:28;;;;;;;11.25;1.75;;;11.00;99.90;;;;;;4982790;28;20098;-64
2023/11/06 09:36:54;;;;;;;12.18;2.22;;;11.10;99.90;;;;;;4980032;28;20026;-64
2023/11/06 09:39:21;;;;;;;11.85;1.90;;;11.30;99.90;;;;;;4981101;28;20464;-64
2023/11/06 09:41:48;;;;;;;9.18;1.88;;;11.50;99.90;;;;;;4983466;28;20339;-62
2023/11/06 09:44:14;;;;;;;6.03;1.23;;;11.80;99.90;;;;;;4984004;28;20129;-62
2023/11/06 09:46:40;;;;;;;6.47;1.42;;;11.80;99.90;;;;;;4981179;28;20389;-62
2023/11/06 09:49:12;;;;;;;9.48;1.73;;;11.60;99.90;;;;;;4983482;28;20032;-62
2023/11/06 09:51:40;;;;;;;10.18;2.67;;;11.30;99.90;;;;;;4978200;28;20023;-62
2023/11/06 09:54:10;;;;;;;12.35;1.90;;;11.20;99.90;;;;;;4980434;28;20026;-62
2023/11/06 09:56:42;;;;;;;9.20;1.60;;;11.10;99.90;;;;;;4942832;29;20085;-62
2023/11/06 09:59:08;;;;;;;8.38;1.80;;;11.20;99.90;;;;;;4978926;28;20487;-62
2023/11/06 10:01:35;;;;;;;11.20;2.00;;;11.50;99.90;;;;;;4981167;28;20455;-62
2023/11/06 10:04:01;;;;;;;6.10;1.48;;;11.70;99.90;;;;;;4981882;28;20023;-62
2023/11/06 10:06:27;;;;;;;9.02;1.48;;;11.90;99.90;;;;;;4980860;28;20015;-62
2023/11/06 10:08:53;;;;;;;7.47;1.42;;;12.40;99.90;;;;;;4983285;28;20050;-62
2023/11/06 10:11:25;;;;;;;10.13;1.65;;;12.90;99.90;;;;;;4979736;28;20034;-62
2023/11/06 10:13:51;;;;;;;8.95;1.50;;;13.30;97.80;;;;;;4985220;28;20037;-62
2023/11/06 10:16:22;;;;;;;10.88;2.22;;;13.30;99.60;;;;;;4982045;28;20041;-62
2023/11/06 10:18:51;;;;;;;3.75;1.40;;;13.30;98.50;;;;;;4979587;28;20127;-62
2023/11/06 10:21:29;;;;;;;5.25;1.30;;;13.50;97.20;;;;;;4979987;28;20026;-62
2023/11/06 10:24:02;;;;;;;8.27;1.45;;;13.70;96.20;;;;;;4983044;28;20478;-62
2023/11/06 10:26:32;;;;;;;7.75;1.38;;;13.60;97.70;;;;;;4979250;28;20036;-62
2023/11/06 10:29:10;;;;;;;9.38;1.40;;;13.20;99.20;;;;;;4979847;28;20066;-62
2023/11/06 10:31:44;;;;;;;8.02;1.42;;;13.10;99.80;;;;;;4975963;28;20441;-62
2023/11/06 10:34:37;;;;;;;4.32;1.10;;;13.00;99.60;;;;;;4981787;28;20077;-62
2023/11/06 10:37:10;;;;;;;6.72;1.55;;;12.60;99.20;;;;;;4981815;28;20046;-62
2023/11/06 10:39:39;;;;;;;5.15;1.20;;;12.30;99.90;;;;;;4980397;28;20038;-62
2023/11/06 10:42:06;;;;;;;7.78;1.75;;;12.20;99.90;;;;;;4981228;28;20054;-62
2023/11/06 10:44:36;;;;;;;9.48;1.83;;;12.20;99.90;;;;;;4979755;28;20030;-62
2023/11/06 10:47:07;;;;;;;10.52;2.05;;;12.30;99.90;;;;;;4975102;28;20023;-62
2023/11/06 10:49:33;;;;;;;;;;;12.20;99.90;;;;;;4981437;28;20097;-62
2023/11/06 10:52:00;;;;;;;9.32;1.95;;;12.50;99.90;;;;;;4981723;28;19910;-62
2023/11/06 10:54:27;;;;;;;6.38;1.48;;;12.50;99.90;;;;;;4979313;28;20078;-62
2023/11/06 10:56:57;;;;;;;10.80;1.80;;;12.50;99.90;;;;;;4973397;28;20034;-62
2023/11/06 10:59:25;;;;;;;11.70;1.90;;;12.50;99.90;;;;;;4980532;28;20019;-62
2023/11/06 11:01:58;;;;;;;10.48;1.48;;;12.40;99.90;;;;;;4980988;28;20101;-62
2023/11/06 11:04:26;;;;;;;10.30;1.50;;;12.30;99.90;;;;;;4975104;28;20106;-62
2023/11/06 11:06:52;;;;;;;7.22;1.58;;;12.30;99.90;;;;;;4979756;28;20054;-62
2023/11/06 11:09:18;;;;;;;8.45;1.75;;;12.30;99.90;;;;;;4979560;28;20461;-62
2023/11/06 11:11:45;;;;;;;8.45;1.20;;;12.30;99.90;;;;;;4981308;28;20018;-62
2023/11/06 11:14:12;;;;;;;7.32;1.38;;;12.50;99.90;;;;;;4980416;28;20037;-62
2023/11/06 11:16:46;;;;;;;7.10;1.60;;;13.10;99.90;;;;;;4975154;28;20069;-62
2023/11/06 11:19:24;;;;;;;7.93;1.40;;;13.40;98.80;;;;;;4979108;28;20102;-62
2023/11/06 11:22:08;;;;;;;10.57;1.20;;;13.50;98.20;;;;;;4943118;28;20043;-62
2023/11/06 11:24:44;;;;;;;10.50;1.80;;;13.60;98.30;;;;;;4978394;28;20031;-62
2023/11/06 11:27:17;;;;;;;10.57;1.83;;;14.10;97.50;;;;;;4977661;28;20022;-62
2023/11/06 11:29:56;;;;;;;7.03;1.40;;;14.20;96.30;;;;;;4981490;28;20027;-63
2023/11/06 11:32:29;;;;;;;8.40;1.75;;;14.20;95.60;;;;;;4979302;28;20054;-63
2023/11/06 11:34:57;;;;;;;11.32;1.83;;;14.00;95.30;;;;;;4978537;28;20031;-63
2023/11/06 11:37:34;;;;;;;9.68;1.55;;;13.70;95.80;;;;;;4980186;28;20022;-63
2023/11/06 11:40:02;;;;;;;7.25;1.17;;;13.50;96.90;;;;;;4985224;28;20038;-63
2023/11/06 11:42:28;;;;;;;10.23;1.52;;;13.50;96.50;;;;;;4977833;28;20074;-63
2023/11/06 11:45:07;;;;;;;8.57;1.67;;;13.50;96.90;;;;;;4979123;28;20077;-63
2023/11/06 11:47:48;;;;;;;8.93;1.52;;;13.50;97.10;;;;;;4978001;28;20023;-63
2023/11/06 11:50:38;;;;;;;12.80;1.90;;;13.60;96.20;;;;;;4978916;28;20026;-63
2023/11/06 11:53:04;;;;;;;8.80;1.40;;;13.50;96.00;;;;;;4978427;28;20418;-63
2023/11/06 11:55:39;;;;;;;7.28;1.40;;;13.40;97.60;;;;;;4980468;28;20129;-63
2023/11/06 11:58:05;;;;;;;8.35;1.42;;;13.30;97.20;;;;;;4973974;28;20398;-63
2023/11/06 12:00:44;;;;;;;5.88;1.45;;;13.10;98.30;;;;;;4979664;28;20031;-63
2023/11/06 12:03:17;;;;;;;6.05;1.08;;;12.90;97.90;;;;;;4977007;28;20032;-64
2023/11/06 12:05:53;;;;;;;7.70;1.33;;;12.70;98.60;;;;;;4979957;28;20347;-64
2023/11/06 12:08:20;;;;;;;6.07;1.35;;;12.60;99.10;;;;;;4974357;28;20050;-64
2023/11/06 12:10:48;;;;;;;10.55;1.83;;;12.60;98.90;;;;;;4980479;28;20461;-64
2023/11/06 12:13:23;;;;;;;5.30;1.15;;;12.50;98.60;;;;;;4980555;28;20371;-64
2023/11/06 12:15:49;;;;;;;4.63;1.02;;;12.50;98.50;;;;;;4974546;28;20027;-64
2023/11/06 12:18:16;;;;;;;5.88;1.13;;;12.50;99.90;;;;;;4979603;28;20065;-64
2023/11/06 12:20:44;;;;;;;6.43;1.10;;;12.60;99.90;;;;;;4979289;28;20023;-64
2023/11/06 12:23:10;;;;;;;6.90;1.10;;;12.60;98.30;;;;;;4978059;28;20022;-65
2023/11/06 12:25:38;;;;;;;9.25;1.50;;;12.70;99.90;;;;;;4980742;28;20049;-64
2023/11/06 12:28:08;;;;;;;2.40;0.82;;;12.70;98.50;;;;;;4972481;28;20023;-64
2023/11/06 12:30:35;;;;;;;6.20;1.10;;;12.70;98.80;;;;;;4978520;28;20085;-64
2023/11/06 12:33:14;;;;;;;7.60;1.05;;;12.60;98.00;;;;;;4979108;28;20061;-64
2023/11/06 12:35:41;;;;;;;2.85;0.90;;;12.70;99.30;;;;;;4975421;28;20126;-68
2023/11/06 12:38:07;;;;;;;4.40;1.08;;;12.70;99.00;;;;;;4978994;28;20367;-64
2023/11/06 12:40:33;;;;;;;6.47;1.40;;;12.70;98.70;;;;;;4981225;28;20039;-64
2023/11/06 12:43:02;;;;;;;6.82;1.52;;;12.70;98.90;;;;;;4979954;28;20449;-64
2023/11/06 12:45:31;;;;;;;4.03;1.05;;;12.90;98.30;;;;;;4941907;28;20091;-64
2023/11/06 12:48:02;;;;;;;6.07;0.93;;;13.40;96.80;;;;;;4978826;28;20030;-64
2023/11/06 12:50:32;;;;;;;6.03;1.17;;;13.80;95.20;;;;;;4978796;28;20076;-64